sensor_id;sensor_type;location;lat;lon;timestamp;P1;durP1;ratioP1;P2;durP2;ratioP2
27025;SDS011;14565;48.626;8.978;2023-02-28T00:00:34;3.53;;;2.13;;
27025;SDS011;14565;48.626;8.978;2023-02-28T00:03:00;3.45;;;1.77;;
27025;SDS011;14565;48.626;8.978;2023-02-28T00:05:27;4.30;;;1.95;;
27025;SDS011;14565;48.626;8.978;2023-02-28T00:07:53;3.30;;;1.90;;
27025;SDS011;14565;48.626;8.978;2023-02-28T00:10:19;3.03;;;1.70;;
27025;SDS011;14565;48.626;8.978;2023-02-28T00:12:50;2.75;;;1.52;;
27025;SDS011;14565;48.626;8.978;2023-02-28T00:15:16;3.97;;;1.75;;
27025;SDS011;14565;48.626;8.978;2023-02-28T00:17:42;6.97;;;1.88;;
27025;SDS011;14565;48.626;8.978;2023-02-28T00:20:08;3.53;;;2.15;;
27025;SDS011;14565;48.626;8.978;2023-02-28T00:22:37;3.95;;;2.30;;
27025;SDS011;14565;48.626;8.978;2023-02-28T00:25:04;2.85;;;1.60;;
27025;SDS011;14565;48.626;8.978;2023-02-28T00:27:31;4.57;;;2.00;;
27025;SDS011;14565;48.626;8.978;2023-02-28T00:29:57;4.22;;;1.90;;
27025;SDS011;14565;48.626;8.978;2023-02-28T00:32:23;4.72;;;1.90;;
27025;SDS011;14565;48.626;8.978;2023-02-28T00:34:48;5.13;;;2.03;;
27025;SDS011;14565;48.626;8.978;2023-02-28T00:37:14;4.07;;;1.90;;
27025;SDS011;14565;48.626;8.978;2023-02-28T00:39:40;3.55;;;1.67;;
27025;SDS011;14565;48.626;8.978;2023-02-28T00:42:06;3.92;;;1.67;;
27025;SDS011;14565;48.626;8.978;2023-02-28T00:44:32;5.35;;;2.10;;
27025;SDS011;14565;48.626;8.978;2023-02-28T00:46:59;3.65;;;2.05;;
27025;SDS011;14565;48.626;8.978;2023-02-28T00:49:25;3.95;;;1.77;;
27025;SDS011;14565;48.626;8.978;2023-02-28T00:51:52;4.10;;;1.58;;
27025;SDS011;14565;48.626;8.978;2023-02-28T00:54:19;3.77;;;2.10;;
27025;SDS011;14565;48.626;8.978;2023-02-28T00:56:45;4.18;;;1.88;;
27025;SDS011;14565;48.626;8.978;2023-02-28T00:59:12;3.08;;;2.00;;
27025;SDS011;14565;48.626;8.978;2023-02-28T01:01:38;5.00;;;2.00;;
27025;SDS011;14565;48.626;8.978;2023-02-28T01:04:04;3.83;;;1.98;;
27025;SDS011;14565;48.626;8.978;2023-02-28T01:06:30;5.18;;;2.30;;
27025;SDS011;14565;48.626;8.978;2023-02-28T01:08:56;7.90;;;2.60;;
27025;SDS011;14565;48.626;8.978;2023-02-28T01:11:22;4.35;;;2.15;;
27025;SDS011;14565;48.626;8.978;2023-02-28T01:13:48;3.33;;;1.77;;
27025;SDS011;14565;48.626;8.978;2023-02-28T01:16:14;5.07;;;2.15;;
27025;SDS011;14565;48.626;8.978;2023-02-28T01:18:40;3.15;;;1.85;;
27025;SDS011;14565;48.626;8.978;2023-02-28T01:21:12;3.10;;;2.10;;
27025;SDS011;14565;48.626;8.978;2023-02-28T01:23:40;5.28;;;1.98;;
27025;SDS011;14565;48.626;8.978;2023-02-28T01:26:19;6.05;;;1.90;;
27025;SDS011;14565;48.626;8.978;2023-02-28T01:28:47;6.03;;;2.30;;
27025;SDS011;14565;48.626;8.978;2023-02-28T01:31:13;4.47;;;2.22;;
27025;SDS011;14565;48.626;8.978;2023-02-28T01:33:39;4.82;;;2.00;;
27025;SDS011;14565;48.626;8.978;2023-02-28T01:36:09;5.57;;;2.15;;
27025;SDS011;14565;48.626;8.978;2023-02-28T01:38:37;6.30;;;2.00;;
27025;SDS011;14565;48.626;8.978;2023-02-28T01:41:03;4.40;;;2.20;;
27025;SDS011;14565;48.626;8.978;2023-02-28T01:43:52;4.43;;;2.10;;
27025;SDS011;14565;48.626;8.978;2023-02-28T01:46:18;5.32;;;2.00;;
27025;SDS011;14565;48.626;8.978;2023-02-28T01:51:33;3.33;;;2.08;;
27025;SDS011;14565;48.626;8.978;2023-02-28T01:54:05;3.85;;;1.90;;
27025;SDS011;14565;48.626;8.978;2023-02-28T01:56:38;4.75;;;2.38;;
27025;SDS011;14565;48.626;8.978;2023-02-28T01:59:21;8.02;;;2.30;;
27025;SDS011;14565;48.626;8.978;2023-02-28T02:01:50;4.00;;;1.83;;
27025;SDS011;14565;48.626;8.978;2023-02-28T02:04:16;3.80;;;1.80;;
27025;SDS011;14565;48.626;8.978;2023-02-28T02:06:43;3.88;;;2.42;;
27025;SDS011;14565;48.626;8.978;2023-02-28T02:09:11;4.63;;;2.70;;
27025;SDS011;14565;48.626;8.978;2023-02-28T02:11:37;4.47;;;1.92;;
27025;SDS011;14565;48.626;8.978;2023-02-28T02:30:53;5.78;;;2.45;;
27025;SDS011;14565;48.626;8.978;2023-02-28T02:36:42;3.35;;;2.30;;
27025;SDS011;14565;48.626;8.978;2023-02-28T02:39:27;6.78;;;2.97;;
27025;SDS011;14565;48.626;8.978;2023-02-28T02:41:59;5.05;;;2.50;;
27025;SDS011;14565;48.626;8.978;2023-02-28T02:44:28;5.00;;;2.50;;
27025;SDS011;14565;48.626;8.978;2023-02-28T02:47:06;4.70;;;2.85;;
27025;SDS011;14565;48.626;8.978;2023-02-28T02:49:36;8.07;;;2.88;;
27025;SDS011;14565;48.626;8.978;2023-02-28T02:52:06;6.05;;;2.83;;
27025;SDS011;14565;48.626;8.978;2023-02-28T02:54:35;6.65;;;3.28;;
27025;SDS011;14565;48.626;8.978;2023-02-28T02:57:17;6.15;;;3.10;;
27025;SDS011;14565;48.626;8.978;2023-02-28T02:59:48;5.63;;;3.10;;
27025;SDS011;14565;48.626;8.978;2023-02-28T03:02:14;4.90;;;2.80;;
27025;SDS011;14565;48.626;8.978;2023-02-28T03:04:43;6.65;;;3.17;;
27025;SDS011;14565;48.626;8.978;2023-02-28T03:07:13;5.35;;;3.05;;
27025;SDS011;14565;48.626;8.978;2023-02-28T03:09:38;5.43;;;2.95;;
27025;SDS011;14565;48.626;8.978;2023-02-28T03:12:04;5.85;;;2.97;;
27025;SDS011;14565;48.626;8.978;2023-02-28T03:14:38;7.78;;;2.55;;
27025;SDS011;14565;48.626;8.978;2023-02-28T03:17:24;4.63;;;2.90;;
27025;SDS011;14565;48.626;8.978;2023-02-28T03:28:35;6.07;;;3.13;;
27025;SDS011;14565;48.626;8.978;2023-02-28T03:31:20;4.80;;;3.20;;
27025;SDS011;14565;48.626;8.978;2023-02-28T03:33:53;6.82;;;3.50;;
27025;SDS011;14565;48.626;8.978;2023-02-28T03:36:39;4.43;;;3.00;;
27025;SDS011;14565;48.626;8.978;2023-02-28T03:39:12;4.40;;;2.70;;
27025;SDS011;14565;48.626;8.978;2023-02-28T03:41:57;8.25;;;3.60;;
27025;SDS011;14565;48.626;8.978;2023-02-28T03:44:35;6.28;;;3.00;;
27025;SDS011;14565;48.626;8.978;2023-02-28T03:47:03;7.23;;;3.33;;
27025;SDS011;14565;48.626;8.978;2023-02-28T03:49:36;5.63;;;2.88;;
27025;SDS011;14565;48.626;8.978;2023-02-28T03:52:10;7.53;;;3.80;;
27025;SDS011;14565;48.626;8.978;2023-02-28T03:54:38;5.55;;;2.88;;
27025;SDS011;14565;48.626;8.978;2023-02-28T03:57:11;6.72;;;4.47;;
27025;SDS011;14565;48.626;8.978;2023-02-28T04:00:03;4.60;;;3.05;;
27025;SDS011;14565;48.626;8.978;2023-02-28T04:02:35;5.97;;;3.42;;
27025;SDS011;14565;48.626;8.978;2023-02-28T04:05:01;6.68;;;3.42;;
27025;SDS011;14565;48.626;8.978;2023-02-28T04:07:31;5.30;;;3.40;;
27025;SDS011;14565;48.626;8.978;2023-02-28T04:09:57;3.75;;;2.80;;
27025;SDS011;14565;48.626;8.978;2023-02-28T04:12:22;6.00;;;3.45;;
27025;SDS011;14565;48.626;8.978;2023-02-28T04:14:49;7.75;;;3.92;;
27025;SDS011;14565;48.626;8.978;2023-02-28T04:17:15;7.25;;;4.35;;
27025;SDS011;14565;48.626;8.978;2023-02-28T04:19:41;8.77;;;3.90;;
27025;SDS011;14565;48.626;8.978;2023-02-28T04:22:07;7.47;;;4.63;;
27025;SDS011;14565;48.626;8.978;2023-02-28T04:24:34;8.30;;;3.85;;
27025;SDS011;14565;48.626;8.978;2023-02-28T04:27:00;9.23;;;4.10;;
27025;SDS011;14565;48.626;8.978;2023-02-28T04:29:26;8.65;;;4.65;;
27025;SDS011;14565;48.626;8.978;2023-02-28T04:31:59;4.68;;;2.72;;
27025;SDS011;14565;48.626;8.978;2023-02-28T04:34:27;7.82;;;4.25;;
27025;SDS011;14565;48.626;8.978;2023-02-28T04:36:54;6.45;;;4.68;;
27025;SDS011;14565;48.626;8.978;2023-02-28T04:39:21;4.40;;;2.85;;
27025;SDS011;14565;48.626;8.978;2023-02-28T04:41:47;7.65;;;4.03;;
27025;SDS011;14565;48.626;8.978;2023-02-28T04:44:13;7.88;;;4.35;;
27025;SDS011;14565;48.626;8.978;2023-02-28T04:46:40;6.80;;;3.85;;
27025;SDS011;14565;48.626;8.978;2023-02-28T04:49:06;7.80;;;4.95;;
27025;SDS011;14565;48.626;8.978;2023-02-28T04:51:31;7.85;;;4.13;;
27025;SDS011;14565;48.626;8.978;2023-02-28T04:53:57;6.75;;;3.85;;
27025;SDS011;14565;48.626;8.978;2023-02-28T04:56:23;8.57;;;4.32;;
27025;SDS011;14565;48.626;8.978;2023-02-28T04:58:49;6.68;;;3.60;;
27025;SDS011;14565;48.626;8.978;2023-02-28T05:03:41;4.20;;;2.83;;
27025;SDS011;14565;48.626;8.978;2023-02-28T05:06:08;8.85;;;4.70;;
27025;SDS011;14565;48.626;8.978;2023-02-28T05:08:34;8.82;;;4.30;;
27025;SDS011;14565;48.626;8.978;2023-02-28T05:11:00;5.57;;;2.97;;
27025;SDS011;14565;48.626;8.978;2023-02-28T05:13:26;8.38;;;3.90;;
27025;SDS011;14565;48.626;8.978;2023-02-28T05:15:52;7.20;;;4.35;;
27025;SDS011;14565;48.626;8.978;2023-02-28T05:18:18;7.15;;;4.78;;
27025;SDS011;14565;48.626;8.978;2023-02-28T05:20:44;8.73;;;5.28;;
27025;SDS011;14565;48.626;8.978;2023-02-28T05:23:12;9.32;;;5.30;;
27025;SDS011;14565;48.626;8.978;2023-02-28T05:25:39;9.23;;;5.07;;
27025;SDS011;14565;48.626;8.978;2023-02-28T05:28:05;7.75;;;4.63;;
27025;SDS011;14565;48.626;8.978;2023-02-28T05:30:31;8.13;;;4.40;;
27025;SDS011;14565;48.626;8.978;2023-02-28T05:32:58;7.32;;;4.60;;
27025;SDS011;14565;48.626;8.978;2023-02-28T05:35:25;7.28;;;4.70;;
27025;SDS011;14565;48.626;8.978;2023-02-28T05:37:51;6.93;;;3.83;;
27025;SDS011;14565;48.626;8.978;2023-02-28T05:40:16;6.95;;;3.42;;
27025;SDS011;14565;48.626;8.978;2023-02-28T05:42:45;8.35;;;5.47;;
27025;SDS011;14565;48.626;8.978;2023-02-28T05:45:11;9.68;;;5.45;;
27025;SDS011;14565;48.626;8.978;2023-02-28T05:47:37;10.85;;;5.53;;
27025;SDS011;14565;48.626;8.978;2023-02-28T05:50:04;12.05;;;5.25;;
27025;SDS011;14565;48.626;8.978;2023-02-28T05:52:30;11.20;;;5.38;;
27025;SDS011;14565;48.626;8.978;2023-02-28T05:54:56;17.13;;;6.72;;
27025;SDS011;14565;48.626;8.978;2023-02-28T05:57:22;13.00;;;6.25;;
27025;SDS011;14565;48.626;8.978;2023-02-28T05:59:48;12.73;;;5.38;;
27025;SDS011;14565;48.626;8.978;2023-02-28T06:02:14;10.13;;;6.03;;
27025;SDS011;14565;48.626;8.978;2023-02-28T06:04:41;9.55;;;5.03;;
27025;SDS011;14565;48.626;8.978;2023-02-28T06:07:07;11.52;;;5.82;;
27025;SDS011;14565;48.626;8.978;2023-02-28T06:09:34;13.35;;;6.25;;
27025;SDS011;14565;48.626;8.978;2023-02-28T06:12:00;10.27;;;4.80;;
27025;SDS011;14565;48.626;8.978;2023-02-28T06:14:28;9.93;;;6.80;;
27025;SDS011;14565;48.626;8.978;2023-02-28T06:16:56;11.60;;;6.22;;
27025;SDS011;14565;48.626;8.978;2023-02-28T06:19:21;12.18;;;6.80;;
27025;SDS011;14565;48.626;8.978;2023-02-28T06:21:50;12.05;;;6.32;;
27025;SDS011;14565;48.626;8.978;2023-02-28T06:24:17;9.60;;;6.35;;
27025;SDS011;14565;48.626;8.978;2023-02-28T06:26:47;11.45;;;6.07;;
27025;SDS011;14565;48.626;8.978;2023-02-28T06:29:12;12.25;;;8.00;;
27025;SDS011;14565;48.626;8.978;2023-02-28T06:31:42;11.75;;;6.60;;
27025;SDS011;14565;48.626;8.978;2023-02-28T06:34:09;13.20;;;6.90;;
27025;SDS011;14565;48.626;8.978;2023-02-28T06:36:37;11.63;;;6.53;;
27025;SDS011;14565;48.626;8.978;2023-02-28T06:39:03;11.33;;;6.53;;
27025;SDS011;14565;48.626;8.978;2023-02-28T06:41:29;10.85;;;6.80;;
27025;SDS011;14565;48.626;8.978;2023-02-28T06:43:55;13.43;;;6.93;;
27025;SDS011;14565;48.626;8.978;2023-02-28T06:46:22;10.32;;;6.30;;
27025;SDS011;14565;48.626;8.978;2023-02-28T06:48:48;10.63;;;6.20;;
27025;SDS011;14565;48.626;8.978;2023-02-28T06:51:17;11.10;;;5.93;;
27025;SDS011;14565;48.626;8.978;2023-02-28T06:53:45;11.13;;;6.63;;
27025;SDS011;14565;48.626;8.978;2023-02-28T06:56:12;8.75;;;5.13;;
27025;SDS011;14565;48.626;8.978;2023-02-28T06:58:40;15.75;;;5.45;;
27025;SDS011;14565;48.626;8.978;2023-02-28T07:01:06;10.05;;;6.07;;
27025;SDS011;14565;48.626;8.978;2023-02-28T07:03:34;10.43;;;6.22;;
27025;SDS011;14565;48.626;8.978;2023-02-28T07:06:00;11.60;;;7.05;;
27025;SDS011;14565;48.626;8.978;2023-02-28T07:08:26;11.25;;;6.25;;
27025;SDS011;14565;48.626;8.978;2023-02-28T07:10:55;15.68;;;7.05;;
27025;SDS011;14565;48.626;8.978;2023-02-28T07:13:21;11.60;;;6.72;;
27025;SDS011;14565;48.626;8.978;2023-02-28T07:15:58;9.93;;;6.15;;
27025;SDS011;14565;48.626;8.978;2023-02-28T07:20:51;14.18;;;6.90;;
27025;SDS011;14565;48.626;8.978;2023-02-28T07:23:17;14.48;;;7.85;;
27025;SDS011;14565;48.626;8.978;2023-02-28T07:25:43;12.40;;;7.72;;
27025;SDS011;14565;48.626;8.978;2023-02-28T07:28:10;11.23;;;6.47;;
27025;SDS011;14565;48.626;8.978;2023-02-28T07:30:36;14.40;;;8.40;;
27025;SDS011;14565;48.626;8.978;2023-02-28T07:33:02;12.32;;;7.47;;
27025;SDS011;14565;48.626;8.978;2023-02-28T07:35:28;8.73;;;5.80;;
27025;SDS011;14565;48.626;8.978;2023-02-28T07:37:54;10.52;;;6.60;;
27025;SDS011;14565;48.626;8.978;2023-02-28T07:40:21;12.43;;;6.20;;
27025;SDS011;14565;48.626;8.978;2023-02-28T07:42:47;9.68;;;5.28;;
27025;SDS011;14565;48.626;8.978;2023-02-28T07:45:13;11.57;;;6.57;;
27025;SDS011;14565;48.626;8.978;2023-02-28T07:47:39;14.45;;;8.25;;
27025;SDS011;14565;48.626;8.978;2023-02-28T07:50:06;12.63;;;6.82;;
27025;SDS011;14565;48.626;8.978;2023-02-28T07:52:35;14.30;;;7.20;;
27025;SDS011;14565;48.626;8.978;2023-02-28T07:55:02;12.52;;;6.30;;
27025;SDS011;14565;48.626;8.978;2023-02-28T07:57:29;11.85;;;6.97;;
27025;SDS011;14565;48.626;8.978;2023-02-28T07:59:55;13.88;;;6.72;;
27025;SDS011;14565;48.626;8.978;2023-02-28T08:02:20;12.85;;;6.80;;
27025;SDS011;14565;48.626;8.978;2023-02-28T08:04:46;11.38;;;6.53;;
27025;SDS011;14565;48.626;8.978;2023-02-28T08:07:13;15.68;;;7.78;;
27025;SDS011;14565;48.626;8.978;2023-02-28T08:09:39;11.77;;;7.97;;
27025;SDS011;14565;48.626;8.978;2023-02-28T08:12:08;11.35;;;4.80;;
27025;SDS011;14565;48.626;8.978;2023-02-28T08:14:34;14.07;;;8.85;;
27025;SDS011;14565;48.626;8.978;2023-02-28T08:17:00;14.07;;;7.72;;
27025;SDS011;14565;48.626;8.978;2023-02-28T08:19:27;14.18;;;7.28;;
27025;SDS011;14565;48.626;8.978;2023-02-28T08:21:53;11.07;;;7.13;;
27025;SDS011;14565;48.626;8.978;2023-02-28T08:24:19;12.77;;;6.90;;
27025;SDS011;14565;48.626;8.978;2023-02-28T08:26:45;11.65;;;7.05;;
27025;SDS011;14565;48.626;8.978;2023-02-28T08:29:11;12.50;;;7.65;;
27025;SDS011;14565;48.626;8.978;2023-02-28T08:31:36;15.23;;;6.65;;
27025;SDS011;14565;48.626;8.978;2023-02-28T08:34:06;11.27;;;6.88;;
27025;SDS011;14565;48.626;8.978;2023-02-28T08:36:33;17.10;;;8.02;;
27025;SDS011;14565;48.626;8.978;2023-02-28T08:38:59;16.95;;;8.00;;
27025;SDS011;14565;48.626;8.978;2023-02-28T08:41:25;13.70;;;7.07;;
27025;SDS011;14565;48.626;8.978;2023-02-28T08:43:51;10.77;;;6.65;;
27025;SDS011;14565;48.626;8.978;2023-02-28T08:46:17;11.48;;;7.13;;
27025;SDS011;14565;48.626;8.978;2023-02-28T08:48:42;14.82;;;7.80;;
27025;SDS011;14565;48.626;8.978;2023-02-28T08:51:10;15.40;;;8.20;;
27025;SDS011;14565;48.626;8.978;2023-02-28T08:53:41;13.80;;;7.53;;
27025;SDS011;14565;48.626;8.978;2023-02-28T08:56:11;12.25;;;7.50;;
27025;SDS011;14565;48.626;8.978;2023-02-28T08:58:38;13.43;;;7.10;;
27025;SDS011;14565;48.626;8.978;2023-02-28T09:01:08;11.82;;;7.28;;
27025;SDS011;14565;48.626;8.978;2023-02-28T09:03:34;11.50;;;6.47;;
27025;SDS011;14565;48.626;8.978;2023-02-28T09:06:00;15.65;;;8.05;;
27025;SDS011;14565;48.626;8.978;2023-02-28T09:08:27;13.30;;;7.22;;
27025;SDS011;14565;48.626;8.978;2023-02-28T09:10:54;13.32;;;6.32;;
27025;SDS011;14565;48.626;8.978;2023-02-28T09:15:47;11.43;;;7.22;;
27025;SDS011;14565;48.626;8.978;2023-02-28T09:18:13;12.18;;;6.65;;
27025;SDS011;14565;48.626;8.978;2023-02-28T09:20:39;14.63;;;7.07;;
27025;SDS011;14565;48.626;8.978;2023-02-28T09:23:06;15.43;;;8.30;;
27025;SDS011;14565;48.626;8.978;2023-02-28T09:25:33;12.63;;;7.88;;
27025;SDS011;14565;48.626;8.978;2023-02-28T09:27:59;13.02;;;8.55;;
27025;SDS011;14565;48.626;8.978;2023-02-28T09:30:25;17.02;;;7.53;;
27025;SDS011;14565;48.626;8.978;2023-02-28T09:32:50;14.43;;;7.53;;
27025;SDS011;14565;48.626;8.978;2023-02-28T09:35:20;10.88;;;6.05;;
27025;SDS011;14565;48.626;8.978;2023-02-28T09:37:46;12.57;;;7.53;;
27025;SDS011;14565;48.626;8.978;2023-02-28T09:40:13;12.25;;;5.57;;
27025;SDS011;14565;48.626;8.978;2023-02-28T09:42:43;14.50;;;6.50;;
27025;SDS011;14565;48.626;8.978;2023-02-28T09:47:47;12.77;;;7.97;;
27025;SDS011;14565;48.626;8.978;2023-02-28T09:52:46;16.80;;;8.13;;
27025;SDS011;14565;48.626;8.978;2023-02-28T09:57:45;13.55;;;5.18;;
27025;SDS011;14565;48.626;8.978;2023-02-28T10:05:24;13.32;;;7.60;;
27025;SDS011;14565;48.626;8.978;2023-02-28T10:10:44;11.38;;;6.05;;
27025;SDS011;14565;48.626;8.978;2023-02-28T10:16:01;15.93;;;7.93;;
27025;SDS011;14565;48.626;8.978;2023-02-28T10:18:30;14.63;;;8.77;;
27025;SDS011;14565;48.626;8.978;2023-02-28T10:21:26;12.18;;;7.50;;
27025;SDS011;14565;48.626;8.978;2023-02-28T10:24:11;16.17;;;7.72;;
27025;SDS011;14565;48.626;8.978;2023-02-28T10:26:48;10.73;;;5.90;;
27025;SDS011;14565;48.626;8.978;2023-02-28T10:29:17;11.60;;;6.43;;
27025;SDS011;14565;48.626;8.978;2023-02-28T10:31:43;12.30;;;7.57;;
27025;SDS011;14565;48.626;8.978;2023-02-28T10:34:10;13.27;;;7.10;;
27025;SDS011;14565;48.626;8.978;2023-02-28T10:36:37;12.10;;;8.43;;
27025;SDS011;14565;48.626;8.978;2023-02-28T10:39:33;9.27;;;6.05;;
27025;SDS011;14565;48.626;8.978;2023-02-28T10:42:00;14.43;;;7.67;;
27025;SDS011;14565;48.626;8.978;2023-02-28T10:44:26;14.20;;;7.47;;
27025;SDS011;14565;48.626;8.978;2023-02-28T10:46:51;11.32;;;6.53;;
27025;SDS011;14565;48.626;8.978;2023-02-28T10:49:26;19.05;;;11.50;;
27025;SDS011;14565;48.626;8.978;2023-02-28T10:52:00;13.93;;;7.30;;
27025;SDS011;14565;48.626;8.978;2023-02-28T10:54:28;9.85;;;5.18;;
27025;SDS011;14565;48.626;8.978;2023-02-28T10:57:05;10.88;;;6.30;;
27025;SDS011;14565;48.626;8.978;2023-02-28T10:59:52;14.80;;;7.50;;
27025;SDS011;14565;48.626;8.978;2023-02-28T11:05:02;11.57;;;7.22;;
27025;SDS011;14565;48.626;8.978;2023-02-28T11:07:50;12.20;;;7.65;;
27025;SDS011;14565;48.626;8.978;2023-02-28T11:10:21;11.80;;;7.53;;
27025;SDS011;14565;48.626;8.978;2023-02-28T11:12:50;13.63;;;7.65;;
27025;SDS011;14565;48.626;8.978;2023-02-28T11:17:54;10.48;;;7.50;;
27025;SDS011;14565;48.626;8.978;2023-02-28T11:20:24;15.02;;;8.73;;
27025;SDS011;14565;48.626;8.978;2023-02-28T11:22:53;12.85;;;7.68;;
27025;SDS011;14565;48.626;8.978;2023-02-28T11:25:24;17.10;;;7.93;;
27025;SDS011;14565;48.626;8.978;2023-02-28T11:28:03;15.10;;;7.60;;
27025;SDS011;14565;48.626;8.978;2023-02-28T11:35:44;11.02;;;7.05;;
27025;SDS011;14565;48.626;8.978;2023-02-28T11:46:44;15.80;;;7.63;;
27025;SDS011;14565;48.626;8.978;2023-02-28T11:49:17;12.40;;;7.75;;
27025;SDS011;14565;48.626;8.978;2023-02-28T12:05:45;14.05;;;8.40;;
27025;SDS011;14565;48.626;8.978;2023-02-28T12:16:43;13.60;;;7.18;;
27025;SDS011;14565;48.626;8.978;2023-02-28T12:27:40;10.18;;;6.70;;
27025;SDS011;14565;48.626;8.978;2023-02-28T12:30:16;13.98;;;7.50;;
27025;SDS011;14565;48.626;8.978;2023-02-28T12:32:56;12.77;;;7.95;;
27025;SDS011;14565;48.626;8.978;2023-02-28T12:35:49;12.07;;;6.30;;
27025;SDS011;14565;48.626;8.978;2023-02-28T12:44:43;11.13;;;6.93;;
27025;SDS011;14565;48.626;8.978;2023-02-28T12:46:58;9.68;;;7.13;;
27025;SDS011;14565;48.626;8.978;2023-02-28T12:51:56;14.60;;;7.18;;
27025;SDS011;14565;48.626;8.978;2023-02-28T12:57:22;12.82;;;7.93;;
27025;SDS011;14565;48.626;8.978;2023-02-28T13:00:20;13.80;;;7.90;;
27025;SDS011;14565;48.626;8.978;2023-02-28T13:05:27;14.13;;;7.63;;
27025;SDS011;14565;48.626;8.978;2023-02-28T13:10:41;12.23;;;7.53;;
27025;SDS011;14565;48.626;8.978;2023-02-28T13:13:23;12.45;;;8.10;;
27025;SDS011;14565;48.626;8.978;2023-02-28T13:15:56;10.50;;;7.22;;
27025;SDS011;14565;48.626;8.978;2023-02-28T13:20:56;10.50;;;7.18;;
27025;SDS011;14565;48.626;8.978;2023-02-28T13:26:11;11.30;;;7.43;;
27025;SDS011;14565;48.626;8.978;2023-02-28T13:39:57;17.23;;;7.05;;
27025;SDS011;14565;48.626;8.978;2023-02-28T13:47:30;12.90;;;8.38;;
27025;SDS011;14565;48.626;8.978;2023-02-28T13:55:27;11.25;;;7.45;;
27025;SDS011;14565;48.626;8.978;2023-02-28T14:06:51;13.05;;;8.40;;
27025;SDS011;14565;48.626;8.978;2023-02-28T14:09:26;12.68;;;8.00;;
27025;SDS011;14565;48.626;8.978;2023-02-28T14:11:53;13.45;;;8.48;;
27025;SDS011;14565;48.626;8.978;2023-02-28T14:17:00;13.35;;;8.10;;
27025;SDS011;14565;48.626;8.978;2023-02-28T14:19:29;11.25;;;7.53;;
27025;SDS011;14565;48.626;8.978;2023-02-28T14:37:19;13.25;;;8.07;;
27025;SDS011;14565;48.626;8.978;2023-02-28T14:39:46;12.88;;;7.95;;
27025;SDS011;14565;48.626;8.978;2023-02-28T14:44:54;12.45;;;8.75;;
27025;SDS011;14565;48.626;8.978;2023-02-28T14:47:25;13.45;;;8.27;;
27025;SDS011;14565;48.626;8.978;2023-02-28T14:49:53;13.45;;;8.70;;
27025;SDS011;14565;48.626;8.978;2023-02-28T14:54:46;11.73;;;8.20;;
27025;SDS011;14565;48.626;8.978;2023-02-28T14:57:38;13.95;;;8.45;;
27025;SDS011;14565;48.626;8.978;2023-02-28T15:02:40;12.25;;;8.30;;
27025;SDS011;14565;48.626;8.978;2023-02-28T15:07:36;14.90;;;8.32;;
27025;SDS011;14565;48.626;8.978;2023-02-28T15:13:04;11.88;;;8.18;;
27025;SDS011;14565;48.626;8.978;2023-02-28T15:15:41;16.25;;;8.00;;
27025;SDS011;14565;48.626;8.978;2023-02-28T15:18:10;12.47;;;7.30;;
27025;SDS011;14565;48.626;8.978;2023-02-28T15:20:39;14.43;;;8.15;;
27025;SDS011;14565;48.626;8.978;2023-02-28T15:23:08;12.57;;;8.25;;
27025;SDS011;14565;48.626;8.978;2023-02-28T15:25:34;11.18;;;7.85;;
27025;SDS011;14565;48.626;8.978;2023-02-28T15:28:00;13.02;;;8.05;;
27025;SDS011;14565;48.626;8.978;2023-02-28T15:30:30;14.50;;;7.35;;
27025;SDS011;14565;48.626;8.978;2023-02-28T15:33:17;14.32;;;7.95;;
27025;SDS011;14565;48.626;8.978;2023-02-28T15:35:44;11.13;;;7.90;;
27025;SDS011;14565;48.626;8.978;2023-02-28T15:38:14;10.80;;;7.13;;
27025;SDS011;14565;48.626;8.978;2023-02-28T15:40:42;12.70;;;7.05;;
27025;SDS011;14565;48.626;8.978;2023-02-28T15:45:39;12.38;;;7.43;;
27025;SDS011;14565;48.626;8.978;2023-02-28T15:48:15;12.45;;;7.32;;
27025;SDS011;14565;48.626;8.978;2023-02-28T15:50:42;13.20;;;7.55;;
27025;SDS011;14565;48.626;8.978;2023-02-28T15:53:12;11.48;;;7.80;;
27025;SDS011;14565;48.626;8.978;2023-02-28T15:55:39;13.60;;;7.85;;
27025;SDS011;14565;48.626;8.978;2023-02-28T15:58:08;11.70;;;7.17;;
27025;SDS011;14565;48.626;8.978;2023-02-28T16:00:38;14.68;;;8.27;;
27025;SDS011;14565;48.626;8.978;2023-02-28T16:03:23;12.52;;;7.40;;
27025;SDS011;14565;48.626;8.978;2023-02-28T16:06:07;13.00;;;8.02;;
27025;SDS011;14565;48.626;8.978;2023-02-28T16:08:33;10.80;;;5.82;;
27025;SDS011;14565;48.626;8.978;2023-02-28T16:10:59;13.40;;;8.38;;
27025;SDS011;14565;48.626;8.978;2023-02-28T16:13:25;17.55;;;8.35;;
27025;SDS011;14565;48.626;8.978;2023-02-28T16:15:51;12.25;;;7.88;;
27025;SDS011;14565;48.626;8.978;2023-02-28T16:18:19;11.20;;;7.40;;
27025;SDS011;14565;48.626;8.978;2023-02-28T16:20:45;13.38;;;7.22;;
27025;SDS011;14565;48.626;8.978;2023-02-28T16:23:11;13.25;;;7.82;;
27025;SDS011;14565;48.626;8.978;2023-02-28T16:25:41;11.20;;;7.20;;
27025;SDS011;14565;48.626;8.978;2023-02-28T16:28:50;12.10;;;7.95;;
27025;SDS011;14565;48.626;8.978;2023-02-28T16:31:00;10.65;;;7.18;;
27025;SDS011;14565;48.626;8.978;2023-02-28T16:33:30;16.27;;;9.52;;
27025;SDS011;14565;48.626;8.978;2023-02-28T16:35:56;13.68;;;7.60;;
27025;SDS011;14565;48.626;8.978;2023-02-28T16:38:22;12.63;;;7.45;;
27025;SDS011;14565;48.626;8.978;2023-02-28T16:40:50;12.30;;;7.35;;
27025;SDS011;14565;48.626;8.978;2023-02-28T16:43:19;15.23;;;8.57;;
27025;SDS011;14565;48.626;8.978;2023-02-28T16:45:48;12.30;;;7.90;;
27025;SDS011;14565;48.626;8.978;2023-02-28T16:48:15;12.13;;;7.97;;
27025;SDS011;14565;48.626;8.978;2023-02-28T16:50:41;13.85;;;8.70;;
27025;SDS011;14565;48.626;8.978;2023-02-28T16:55:35;18.58;;;8.35;;
27025;SDS011;14565;48.626;8.978;2023-02-28T16:58:01;13.80;;;8.30;;
27025;SDS011;14565;48.626;8.978;2023-02-28T17:00:29;18.83;;;9.27;;
27025;SDS011;14565;48.626;8.978;2023-02-28T17:02:55;15.88;;;8.55;;
27025;SDS011;14565;48.626;8.978;2023-02-28T17:05:21;13.43;;;8.27;;
27025;SDS011;14565;48.626;8.978;2023-02-28T17:07:48;14.15;;;8.48;;
27025;SDS011;14565;48.626;8.978;2023-02-28T17:10:21;13.98;;;7.97;;
27025;SDS011;14565;48.626;8.978;2023-02-28T17:12:48;15.43;;;8.95;;
27025;SDS011;14565;48.626;8.978;2023-02-28T17:15:14;14.65;;;8.60;;
27025;SDS011;14565;48.626;8.978;2023-02-28T17:17:41;13.55;;;8.77;;
27025;SDS011;14565;48.626;8.978;2023-02-28T17:22:56;80.53;;;38.28;;
27025;SDS011;14565;48.626;8.978;2023-02-28T17:25:23;15.18;;;9.88;;
27025;SDS011;14565;48.626;8.978;2023-02-28T17:27:49;22.92;;;13.25;;
27025;SDS011;14565;48.626;8.978;2023-02-28T17:30:19;17.88;;;9.00;;
27025;SDS011;14565;48.626;8.978;2023-02-28T17:32:45;15.10;;;9.00;;
27025;SDS011;14565;48.626;8.978;2023-02-28T17:35:11;20.60;;;9.75;;
27025;SDS011;14565;48.626;8.978;2023-02-28T17:37:37;19.77;;;12.25;;
27025;SDS011;14565;48.626;8.978;2023-02-28T17:40:03;17.23;;;9.70;;
27025;SDS011;14565;48.626;8.978;2023-02-28T17:42:30;16.85;;;10.30;;
27025;SDS011;14565;48.626;8.978;2023-02-28T17:44:55;21.40;;;9.95;;
27025;SDS011;14565;48.626;8.978;2023-02-28T17:47:21;16.90;;;10.20;;
27025;SDS011;14565;48.626;8.978;2023-02-28T17:49:46;14.88;;;9.73;;
27025;SDS011;14565;48.626;8.978;2023-02-28T17:52:12;22.10;;;10.45;;
27025;SDS011;14565;48.626;8.978;2023-02-28T17:54:38;16.85;;;11.00;;
27025;SDS011;14565;48.626;8.978;2023-02-28T17:57:04;15.55;;;9.85;;
27025;SDS011;14565;48.626;8.978;2023-02-28T17:59:29;19.63;;;12.18;;
27025;SDS011;14565;48.626;8.978;2023-02-28T18:02:01;19.55;;;10.90;;
27025;SDS011;14565;48.626;8.978;2023-02-28T18:04:28;20.98;;;11.23;;
27025;SDS011;14565;48.626;8.978;2023-02-28T18:06:54;23.40;;;11.02;;